Terminal Aerodrome Forecast
Issued by NWS

Home | Current Version | Previous Version | Text Only | Print | Product List | Glossary On
Versions: 1 2 3 4 5 6 7 8 9 10 11 12 13
353
FTUS42 TJSJ 061120
TAFNCM
TAF
TNCM 061120Z 0612/0712 08008KT P6SM SCT020
      TEMPO 0612/0614 5SM -SHRA SCT015 BKN030
     FM061400 09011KT P6SM VCSH SCT022
     FM062200 08007KT P6SM FEW019=

USA.gov is the U.S. government's official web portal to all federal, state and local government web resources and services.